createdAt,value
2017-10-11T00:00:54.770Z,93.45
2017-10-11T00:01:54.758Z,94.02
2017-10-11T00:02:54.727Z,94.02
2017-10-11T00:03:54.713Z,93.64
2017-10-11T00:04:54.681Z,93.93
2017-10-11T00:05:54.659Z,94.02
2017-10-11T00:06:54.639Z,94.02
2017-10-11T00:07:54.617Z,94.02
2017-10-11T00:08:54.599Z,93.74
2017-10-11T00:09:54.576Z,93.45
2017-10-11T00:10:54.549Z,93.84
2017-10-11T00:11:54.530Z,94.12
2017-10-11T00:12:54.517Z,94.02
2017-10-11T00:13:54.485Z,93.64
2017-10-11T00:14:54.470Z,93.55
2017-10-11T00:15:54.449Z,94.02
2017-10-11T00:16:54.421Z,93.64
2017-10-11T00:17:54.393Z,93.93
2017-10-11T00:18:54.382Z,93.84
2017-10-11T00:19:54.354Z,93.64
2017-10-11T00:20:54.333Z,93.79
2017-10-11T00:21:54.306Z,93.93
2017-10-11T00:22:54.284Z,93.84
2017-10-11T00:23:54.268Z,93.84
2017-10-11T00:24:54.238Z,93.79
2017-10-11T00:25:54.218Z,93.79
2017-10-11T00:26:54.203Z,93.79
2017-10-11T00:27:54.204Z,93.79
2017-10-11T00:28:53.839Z,93.79
2017-10-11T00:29:53.823Z,93.88
2017-10-11T00:30:54.112Z,93.69
2017-10-11T00:31:54.092Z,93.79
2017-10-11T00:32:54.063Z,93.79
2017-10-11T00:33:54.059Z,93.45
2017-10-11T00:34:54.021Z,93.93
2017-10-11T00:35:54.001Z,93.4
2017-10-11T00:36:53.977Z,93.4
2017-10-11T00:37:53.968Z,93.4
2017-10-11T00:38:53.944Z,93.4
2017-10-11T00:39:53.919Z,93.6
2017-10-11T00:40:53.893Z,93.6
2017-10-11T00:41:53.879Z,93.6
2017-10-11T00:42:53.850Z,93.88
2017-10-11T00:43:53.828Z,93.88
2017-10-11T00:44:53.802Z,93.88
2017-10-11T00:45:53.780Z,93.6
2017-10-11T00:46:53.763Z,93.69
2017-10-11T00:47:53.739Z,93.6
2017-10-11T00:48:53.708Z,93.6
2017-10-11T00:49:53.693Z,93.69
2017-10-11T00:50:53.671Z,93.6
2017-10-11T00:51:53.651Z,93.98
2017-10-11T00:52:53.631Z,93.6
2017-10-11T00:53:53.607Z,93.79
2017-10-11T00:54:53.586Z,93.98
2017-10-11T00:55:53.558Z,93.6
2017-10-11T00:56:53.546Z,93.98
2017-10-11T00:57:53.518Z,94.07
2017-10-11T00:58:53.500Z,94.07
2017-10-11T00:59:53.475Z,93.79
2017-10-11T01:00:53.451Z,93.79
2017-10-11T01:01:53.435Z,93.79
2017-10-11T01:02:53.407Z,93.88
2017-10-11T01:03:53.392Z,93.98
2017-10-11T01:04:53.371Z,93.88
2017-10-11T01:05:53.348Z,93.98
2017-10-11T01:06:53.321Z,93.88
2017-10-11T01:07:53.299Z,93.69
2017-10-11T01:08:53.284Z,93.79
2017-10-11T01:09:53.271Z,93.88
2017-10-11T01:10:53.231Z,94.17
2017-10-11T01:11:53.212Z,94.07
2017-10-11T01:12:53.187Z,93.79
2017-10-11T01:13:53.172Z,94.07
2017-10-11T01:14:53.142Z,93.98
2017-10-11T01:15:53.125Z,93.88
2017-10-11T01:16:53.103Z,93.79
2017-10-11T01:17:53.079Z,93.98
2017-10-11T01:18:53.062Z,93.98
2017-10-11T01:19:53.033Z,93.98
2017-10-11T01:20:53.017Z,93.98
2017-10-11T01:21:52.987Z,94.26
2017-10-11T01:22:52.971Z,94.26
2017-10-11T01:23:52.949Z,94.26
2017-10-11T01:24:52.923Z,94.26
2017-10-11T01:25:52.901Z,94.17
2017-10-11T01:26:52.876Z,94.46
2017-10-11T01:27:52.853Z,94.26
2017-10-11T01:28:52.837Z,94.17
2017-10-11T01:29:52.810Z,94.65
2017-10-11T01:30:52.812Z,94.26
2017-10-11T01:31:52.777Z,94.46
2017-10-11T01:32:52.766Z,94.17
2017-10-11T01:33:52.730Z,94.46
2017-10-11T01:34:52.700Z,94.36
2017-10-11T01:35:52.681Z,94.46
2017-10-11T01:36:52.658Z,94.36
2017-10-11T01:37:52.642Z,94.46
2017-10-11T01:38:52.619Z,94.36
2017-10-11T01:39:52.602Z,94.46
2017-10-11T01:40:52.569Z,94.46
2017-10-11T01:41:52.553Z,94.46
2017-10-11T01:42:52.532Z,94.46
2017-10-11T01:43:52.514Z,94.36
2017-10-11T01:44:52.478Z,94.26
2017-10-11T01:45:52.459Z,94.46
2017-10-11T01:46:52.439Z,94.46
2017-10-11T01:47:52.419Z,94.46
2017-10-11T01:48:52.389Z,93.98
2017-10-11T01:49:52.368Z,93.98
2017-10-11T01:50:52.357Z,94.26
2017-10-11T01:51:52.325Z,93.98
2017-10-11T01:52:52.308Z,93.98
2017-10-11T01:53:51.960Z,94.26
2017-10-11T01:54:52.261Z,93.98
2017-10-11T01:55:52.240Z,94.17
2017-10-11T01:56:52.210Z,94.17
2017-10-11T01:57:52.195Z,94.36
2017-10-11T01:58:52.172Z,94.36
2017-10-11T01:59:52.160Z,94.17
2017-10-11T02:00:52.126Z,94.36
2017-10-11T02:01:52.103Z,94.26
2017-10-11T02:02:52.084Z,94.36
2017-10-11T02:03:52.069Z,94.36
2017-10-11T02:04:52.042Z,94.31
2017-10-11T02:05:52.016Z,94.02
2017-10-11T02:06:51.995Z,94.26
2017-10-11T02:07:51.972Z,94.17
2017-10-11T02:08:51.947Z,94.36
2017-10-11T02:09:51.926Z,94.12
2017-10-11T02:10:51.915Z,94.26
2017-10-11T02:11:51.881Z,94.36
2017-10-11T02:12:51.861Z,94.17
2017-10-11T02:13:51.835Z,94.36
2017-10-11T02:14:51.820Z,94.31
2017-10-11T02:15:51.472Z,94.22
2017-10-11T02:16:51.770Z,94.26
2017-10-11T02:17:51.756Z,94.31
2017-10-11T02:18:51.724Z,93.79
2017-10-11T02:19:51.709Z,94.17
2017-10-11T02:20:51.684Z,93.74
2017-10-11T02:21:51.669Z,94.22
2017-10-11T02:22:51.643Z,94.22
2017-10-11T02:23:51.615Z,94.22
2017-10-11T02:24:51.596Z,94.12
2017-10-11T02:25:51.572Z,93.84
2017-10-11T02:26:51.556Z,93.88
2017-10-11T02:27:51.530Z,94.02
2017-10-11T02:28:51.509Z,93.84
2017-10-11T02:29:51.486Z,94.41
2017-10-11T02:30:51.469Z,94.31
2017-10-11T02:31:51.438Z,94.22
2017-10-11T02:32:51.424Z,94.26
2017-10-11T02:33:51.401Z,94.41
2017-10-11T02:34:51.371Z,94.31
2017-10-11T02:35:51.349Z,94.41
2017-10-11T02:36:51.327Z,94.6
2017-10-11T02:37:51.309Z,94.41
2017-10-11T02:38:51.282Z,94.41
2017-10-11T02:39:51.259Z,94.41
2017-10-11T02:40:51.252Z,94.22
2017-10-11T02:41:51.221Z,94.22
2017-10-11T02:42:51.192Z,94.7
2017-10-11T02:43:51.178Z,94.51
2017-10-11T02:44:51.160Z,94.41
2017-10-11T02:45:51.138Z,94.41
2017-10-11T02:46:51.105Z,94.31
2017-10-11T02:47:51.097Z,94.27
2017-10-11T02:48:51.058Z,94.36
2017-10-11T02:49:51.038Z,94.55
2017-10-11T02:50:50.696Z,94.84
2017-10-11T02:51:50.995Z,94.55
2017-10-11T02:52:50.977Z,94.22
2017-10-11T02:53:50.628Z,94.27
2017-10-11T02:54:50.929Z,94.17
2017-10-11T02:55:50.907Z,94.17
2017-10-11T02:56:50.887Z,94.41
2017-10-11T02:57:50.859Z,94.22
2017-10-11T02:58:50.834Z,94.22
2017-10-11T02:59:50.811Z,94.22
2017-10-11T03:00:50.792Z,94.22
2017-10-11T03:01:50.769Z,94.41
2017-10-11T03:02:50.753Z,94.41
2017-10-11T03:03:50.732Z,94.22
2017-10-11T03:04:50.705Z,94.22
2017-10-11T03:05:50.679Z,94.6
2017-10-11T03:06:50.661Z,94.41
2017-10-11T03:07:50.637Z,94.22
2017-10-11T03:08:50.615Z,94.22
2017-10-11T03:09:50.594Z,94.41
2017-10-11T03:10:50.569Z,94.41
2017-10-11T03:11:50.544Z,94.41
2017-10-11T03:12:50.529Z,94.41
2017-10-11T03:13:50.504Z,94.41
2017-10-11T03:14:50.479Z,94.41
2017-10-11T03:15:50.459Z,94.22
2017-10-11T03:16:50.439Z,94.31
2017-10-11T03:17:50.094Z,94.12
2017-10-11T03:18:50.396Z,94.22
2017-10-11T03:19:50.364Z,94.12
2017-10-11T03:20:50.344Z,94.12
2017-10-11T03:21:50.326Z,94.31
2017-10-11T03:22:50.303Z,94.22
2017-10-11T03:23:50.275Z,94.41
2017-10-11T03:24:50.258Z,94.41
2017-10-11T03:25:50.234Z,94.02
2017-10-11T03:26:50.210Z,94.7
2017-10-11T03:27:50.192Z,94.31
2017-10-11T03:28:50.173Z,94.89
2017-10-11T03:29:50.146Z,94.6
2017-10-11T03:30:50.150Z,94.31
2017-10-11T03:31:50.097Z,94.31
2017-10-11T03:32:50.080Z,94.22
2017-10-11T03:33:50.058Z,94.41
2017-10-11T03:34:50.035Z,94.31
2017-10-11T03:35:50.020Z,94.26
2017-10-11T03:36:49.991Z,94.31
2017-10-11T03:37:49.966Z,94.46
2017-10-11T03:38:49.949Z,93.98
2017-10-11T03:39:49.919Z,93.93
2017-10-11T03:40:49.898Z,93.98
2017-10-11T03:41:49.877Z,94.46
2017-10-11T03:42:49.855Z,94.65
2017-10-11T03:43:49.857Z,94.46
2017-10-11T03:44:49.831Z,93.98
2017-10-11T03:45:49.789Z,94.65
2017-10-11T03:46:49.768Z,94.46
2017-10-11T03:47:49.746Z,93.98
2017-10-11T03:48:49.401Z,94.46
2017-10-11T03:49:49.702Z,94.17
2017-10-11T03:50:49.685Z,94.46
2017-10-11T03:51:49.664Z,94.46
2017-10-11T03:52:49.636Z,94.46
2017-10-11T03:53:49.611Z,94.55
2017-10-11T03:54:49.588Z,94.46
2017-10-11T03:55:49.567Z,93.93
2017-10-11T03:56:49.548Z,94.55
2017-10-11T03:57:49.524Z,94.46
2017-10-11T03:58:49.500Z,94.17
2017-10-11T03:59:49.478Z,94.55
2017-10-11T04:00:49.454Z,94.55
2017-10-11T04:01:49.442Z,94.46
2017-10-11T04:02:49.414Z,94.55
2017-10-11T04:03:49.385Z,94.46
2017-10-11T04:04:49.370Z,94.55
2017-10-11T04:05:49.350Z,94.46
2017-10-11T04:06:49.325Z,94.46
2017-10-11T04:07:49.304Z,94.46
2017-10-11T04:08:49.283Z,94.46
2017-10-11T04:09:49.258Z,94.46
2017-10-11T04:10:49.234Z,94.36
2017-10-11T04:11:49.209Z,94.36
2017-10-11T04:12:49.187Z,94.46
2017-10-11T04:13:49.168Z,94.55
2017-10-11T04:14:49.148Z,94.55
2017-10-11T04:15:49.125Z,94.36
2017-10-11T04:16:49.113Z,94.26
2017-10-11T04:17:49.076Z,94.36
2017-10-11T04:18:49.062Z,94.26
2017-10-11T04:19:49.039Z,94.46
2017-10-11T04:20:49.012Z,94.41
2017-10-11T04:21:48.987Z,94.36
2017-10-11T04:22:48.966Z,94.36
2017-10-11T04:23:48.946Z,94.46
2017-10-11T04:24:48.923Z,94.26
2017-10-11T04:25:48.909Z,94.46
2017-10-11T04:26:48.882Z,94.26
2017-10-11T04:27:48.856Z,94.46
2017-10-11T04:28:48.828Z,94.36
2017-10-11T04:29:48.814Z,94.41
2017-10-11T04:30:48.793Z,94.36
2017-10-11T04:31:48.771Z,94.46
2017-10-11T04:32:48.754Z,94.46
2017-10-11T04:33:48.723Z,94.46
2017-10-11T04:34:48.703Z,94.55
2017-10-11T04:35:48.360Z,94.55
2017-10-11T04:36:48.664Z,94.46
2017-10-11T04:37:48.669Z,94.26
2017-10-11T04:38:48.627Z,94.46
2017-10-11T04:39:48.617Z,94.46
2017-10-11T04:40:48.572Z,94.55
2017-10-11T04:41:48.547Z,94.46
2017-10-11T04:42:48.527Z,94.46
2017-10-11T04:43:48.499Z,94.65
2017-10-11T04:44:48.491Z,94.46
2017-10-11T04:45:48.459Z,94.36
2017-10-11T04:46:48.439Z,94.46
2017-10-11T04:47:48.416Z,94.26
2017-10-11T04:48:48.399Z,94.65
2017-10-11T04:49:48.369Z,94.46
2017-10-11T04:50:48.348Z,94.55
2017-10-11T04:51:48.009Z,94.65
2017-10-11T04:52:48.301Z,94.65
2017-10-11T04:53:48.280Z,94.74
2017-10-11T04:54:48.265Z,94.36
2017-10-11T04:55:48.245Z,94.74
2017-10-11T04:56:48.214Z,94.36
2017-10-11T04:57:48.189Z,94.46
2017-10-11T04:58:48.173Z,94.55
2017-10-11T04:59:48.151Z,94.55
2017-10-11T05:00:48.128Z,94.55
2017-10-11T05:01:48.119Z,94.55
2017-10-11T05:02:48.081Z,94.65
2017-10-11T05:03:48.058Z,94.55
2017-10-11T05:04:48.046Z,94.46
2017-10-11T05:05:48.020Z,94.55
2017-10-11T05:06:47.995Z,94.46
2017-10-11T05:07:47.651Z,94.74
2017-10-11T05:08:47.626Z,94.74
2017-10-11T05:09:47.926Z,94.46
2017-10-11T05:10:47.909Z,94.65
2017-10-11T05:11:47.889Z,95.12
2017-10-11T05:12:47.861Z,94.36
2017-10-11T05:13:47.839Z,94.46
2017-10-11T05:14:47.825Z,94.46
2017-10-11T05:15:47.794Z,94.46
2017-10-11T05:16:47.770Z,94.55
2017-10-11T05:17:47.753Z,94.74
2017-10-11T05:18:47.730Z,94.98
2017-10-11T05:19:47.706Z,94.55
2017-10-11T05:20:47.681Z,94.79
2017-10-11T05:21:47.659Z,94.55
2017-10-11T05:22:47.636Z,94.65
2017-10-11T05:23:47.626Z,94.84
2017-10-11T05:24:47.606Z,94.74
2017-10-11T05:25:47.573Z,94.55
2017-10-11T05:26:47.549Z,95.12
2017-10-11T05:27:47.543Z,94.84
2017-10-11T05:28:47.508Z,94.55
2017-10-11T05:29:47.483Z,95.12
2017-10-11T05:30:47.459Z,94.65
2017-10-11T05:31:47.437Z,94.55
2017-10-11T05:32:47.428Z,94.98
2017-10-11T05:33:47.398Z,94.6
2017-10-11T05:34:47.369Z,94.79
2017-10-11T05:35:47.346Z,94.46
2017-10-11T05:36:47.011Z,94.84
2017-10-11T05:37:47.309Z,94.51
2017-10-11T05:38:47.277Z,94.55
2017-10-11T05:39:47.268Z,94.6
2017-10-11T05:40:47.241Z,94.65
2017-10-11T05:41:47.216Z,94.55
2017-10-11T05:42:47.199Z,94.84
2017-10-11T05:43:47.179Z,94.46
2017-10-11T05:44:47.156Z,94.74
2017-10-11T05:45:47.126Z,94.65
2017-10-11T05:46:47.104Z,94.7
2017-10-11T05:47:46.764Z,94.98
2017-10-11T05:48:47.068Z,94.89
2017-10-11T05:49:47.047Z,94.7
2017-10-11T05:50:47.017Z,94.98
2017-10-11T05:51:46.997Z,94.55
2017-10-11T05:52:46.988Z,94.7
2017-10-11T05:53:46.631Z,94.51
2017-10-11T05:54:46.608Z,94.51
2017-10-11T05:55:46.923Z,94.51
2017-10-11T05:56:46.886Z,94.7
2017-10-11T05:57:46.868Z,95.03
2017-10-11T05:58:46.837Z,94.6
2017-10-11T05:59:46.816Z,94.6
2017-10-11T06:00:46.806Z,94.74
2017-10-11T06:01:46.771Z,94.84
2017-10-11T06:02:46.744Z,94.6
2017-10-11T06:03:46.727Z,94.79
2017-10-11T06:04:46.707Z,94.84
2017-10-11T06:05:46.687Z,94.84
2017-10-11T06:06:46.657Z,94.7
2017-10-11T06:07:46.634Z,94.84
2017-10-11T06:08:46.618Z,94.65
2017-10-11T06:09:46.603Z,94.93
2017-10-11T06:10:46.252Z,94.93
2017-10-11T06:11:46.568Z,94.93
2017-10-11T06:12:46.530Z,94.84
2017-10-11T06:13:46.507Z,94.84
2017-10-11T06:14:46.483Z,94.93
2017-10-11T06:15:46.465Z,94.65
2017-10-11T06:16:46.437Z,95.03
2017-10-11T06:17:46.422Z,94.65
2017-10-11T06:18:46.397Z,94.65
2017-10-11T06:19:46.374Z,94.55
2017-10-11T06:20:46.362Z,95.12
2017-10-11T06:21:46.326Z,94.55
2017-10-11T06:22:46.310Z,94.55
2017-10-11T06:23:46.284Z,95.03
2017-10-11T06:24:46.271Z,95.03
2017-10-11T06:25:46.251Z,94.93
2017-10-11T06:26:46.224Z,95.03
2017-10-11T06:27:46.195Z,94.84
2017-10-11T06:28:46.172Z,94.65
2017-10-11T06:29:46.151Z,94.84
2017-10-11T06:30:46.128Z,94.46
2017-10-11T06:31:46.108Z,94.93
2017-10-11T06:32:46.082Z,94.93
2017-10-11T06:33:46.059Z,95.03
2017-10-11T06:34:46.041Z,95.12
2017-10-11T06:35:46.028Z,94.55
2017-10-11T06:36:45.993Z,94.65
2017-10-11T06:37:46.010Z,94.46
2017-10-11T06:38:45.950Z,94.65
2017-10-11T06:39:45.946Z,94.55
2017-10-11T06:40:45.904Z,94.46
2017-10-11T06:41:45.891Z,94.65
2017-10-11T06:42:45.869Z,94.65
2017-10-11T06:43:45.848Z,94.65
2017-10-11T06:44:45.820Z,94.55
2017-10-11T06:45:45.800Z,94.46
2017-10-11T06:46:45.778Z,94.46
2017-10-11T06:47:45.758Z,94.46
2017-10-11T06:48:45.730Z,94.46
2017-10-11T06:49:45.711Z,94.65
2017-10-11T06:50:45.687Z,94.46
2017-10-11T06:51:45.672Z,94.46
2017-10-11T06:52:45.641Z,94.65
2017-10-11T06:53:45.620Z,94.46
2017-10-11T06:54:45.597Z,94.65
2017-10-11T06:55:45.577Z,94.46
2017-10-11T06:56:45.556Z,94.46
2017-10-11T06:57:45.536Z,94.84
2017-10-11T06:58:45.512Z,94.46
2017-10-11T06:59:45.483Z,94.84
2017-10-11T07:00:45.479Z,94.84
2017-10-11T07:01:45.448Z,94.65
2017-10-11T07:02:45.426Z,94.46
2017-10-11T07:03:45.413Z,94.07
2017-10-11T07:04:45.376Z,94.65
2017-10-11T07:05:45.356Z,94.65
2017-10-11T07:06:45.334Z,94.65
2017-10-11T07:07:45.312Z,94.74
2017-10-11T07:08:45.292Z,94.36
2017-10-11T07:09:45.276Z,94.74
2017-10-11T07:10:45.252Z,94.36
2017-10-11T07:11:45.232Z,94.36
2017-10-11T07:12:45.205Z,94.36
2017-10-11T07:13:45.177Z,94.36
2017-10-11T07:14:45.165Z,93.98
2017-10-11T07:15:45.142Z,94.36
2017-10-11T07:16:45.117Z,94.26
2017-10-11T07:17:45.091Z,94.7
2017-10-11T07:18:45.074Z,94.26
2017-10-11T07:19:45.068Z,94.6
2017-10-11T07:20:45.027Z,94.55
2017-10-11T07:21:45.017Z,94.7
2017-10-11T07:22:44.666Z,94.7
2017-10-11T07:23:44.960Z,94.6
2017-10-11T07:24:44.936Z,94.6
2017-10-11T07:25:44.919Z,94.31
2017-10-11T07:26:44.899Z,94.7
2017-10-11T07:27:44.873Z,95.07
2017-10-11T07:28:44.848Z,94.5
2017-10-11T07:29:44.833Z,94.5
2017-10-11T07:30:44.817Z,94.89
2017-10-11T07:31:44.790Z,94.6
2017-10-11T07:32:44.763Z,94.5
2017-10-11T07:33:44.746Z,94.5
2017-10-11T07:34:44.715Z,94.5
2017-10-11T07:35:44.699Z,94.5
2017-10-11T07:36:44.688Z,94.6
2017-10-11T07:37:44.664Z,94.5
2017-10-11T07:38:44.633Z,94.98
2017-10-11T07:39:44.612Z,94.79
2017-10-11T07:40:44.593Z,94.5
2017-10-11T07:41:44.254Z,94.6
2017-10-11T07:42:44.546Z,94.89
2017-10-11T07:43:44.523Z,94.41
2017-10-11T07:44:44.500Z,94.89
2017-10-11T07:45:44.479Z,94.89
2017-10-11T07:46:44.467Z,94.79
2017-10-11T07:47:44.436Z,94.5
2017-10-11T07:48:44.417Z,94.79
2017-10-11T07:49:44.076Z,94.7
2017-10-11T07:50:44.369Z,94.7
2017-10-11T07:51:44.349Z,94.89
2017-10-11T07:52:44.341Z,94.31
2017-10-11T07:53:44.308Z,94.31
2017-10-11T07:54:44.283Z,94.89
2017-10-11T07:55:44.264Z,94.79
2017-10-11T07:56:44.241Z,94.7
2017-10-11T07:57:44.220Z,94.79
2017-10-11T07:58:44.202Z,94.5
2017-10-11T07:59:44.182Z,94.12
2017-10-11T08:00:44.150Z,94.7
2017-10-11T08:01:44.130Z,94.6
2017-10-11T08:02:44.112Z,94.36
2017-10-11T08:03:44.095Z,94.17
2017-10-11T08:04:43.743Z,94.5
2017-10-11T08:05:43.726Z,94.31
2017-10-11T08:06:44.024Z,94.41
2017-10-11T08:07:44.002Z,94.26
2017-10-11T08:08:43.657Z,94.65
2017-10-11T08:09:43.644Z,94.26
2017-10-11T08:10:43.937Z,94.45
2017-10-11T08:11:43.921Z,94.45
2017-10-11T08:12:43.889Z,94.6
2017-10-11T08:13:43.869Z,94.26
2017-10-11T08:14:43.853Z,94.55
2017-10-11T08:15:43.826Z,94.55
2017-10-11T08:16:43.805Z,94.36
2017-10-11T08:17:43.787Z,94.45
2017-10-11T08:18:43.767Z,94.55
2017-10-11T08:19:43.748Z,94.45
2017-10-11T08:20:43.404Z,94.65
2017-10-11T08:21:43.699Z,94.74
2017-10-11T08:22:43.675Z,94.74
2017-10-11T08:23:43.667Z,94.65
2017-10-11T08:24:43.643Z,94.74
2017-10-11T08:25:43.610Z,94.55
2017-10-11T08:26:43.601Z,94.55
2017-10-11T08:27:43.570Z,94.74
2017-10-11T08:28:43.554Z,94.65
2017-10-11T08:29:43.535Z,94.65
2017-10-11T08:30:43.501Z,94.74
2017-10-11T08:31:43.477Z,94.74
2017-10-11T08:32:43.472Z,94.93
2017-10-11T08:33:43.437Z,94.07
2017-10-11T08:34:43.421Z,94.93
2017-10-11T08:35:43.398Z,94.74
2017-10-11T08:36:43.378Z,94.93
2017-10-11T08:37:43.353Z,94.93
2017-10-11T08:38:43.330Z,94.84
2017-10-11T08:39:43.311Z,94.26
2017-10-11T08:40:43.292Z,94.55
2017-10-11T08:41:43.266Z,94.74
2017-10-11T08:42:43.245Z,94.65
2017-10-11T08:43:43.229Z,94.74
2017-10-11T08:44:43.207Z,94.65
2017-10-11T08:45:43.182Z,94.65
2017-10-11T08:46:43.159Z,94.65
2017-10-11T08:47:43.139Z,94.69
2017-10-11T08:48:43.118Z,94.79
2017-10-11T08:49:43.099Z,94.12
2017-10-11T08:50:43.082Z,94.89
2017-10-11T08:51:43.058Z,94.6
2017-10-11T08:52:43.038Z,94.69
2017-10-11T08:53:43.014Z,94.21
2017-10-11T08:54:42.989Z,94.5
2017-10-11T08:55:42.969Z,94.69
2017-10-11T08:56:42.948Z,94.69
2017-10-11T08:57:42.928Z,94.21
2017-10-11T08:58:42.903Z,94.69
2017-10-11T08:59:42.881Z,94.4
2017-10-11T09:00:42.867Z,94.69
2017-10-11T09:01:42.846Z,94.4
2017-10-11T09:02:42.819Z,94.31
2017-10-11T09:03:42.800Z,94.21
2017-10-11T09:04:42.779Z,94.21
2017-10-11T09:05:42.760Z,94.4
2017-10-11T09:06:42.733Z,94.21
2017-10-11T09:07:42.713Z,94.6
2017-10-11T09:08:42.691Z,94.4
2017-10-11T09:09:42.684Z,94.4
2017-10-11T09:10:42.754Z,94.4
2017-10-11T09:11:42.639Z,94.31
2017-10-11T09:12:42.610Z,94.31
2017-10-11T09:13:42.589Z,94.6
2017-10-11T09:14:42.590Z,94.79
2017-10-11T09:15:42.539Z,94.79
2017-10-11T09:16:42.522Z,94.69
2017-10-11T09:17:42.505Z,94.79
2017-10-11T09:18:42.479Z,94.69
2017-10-11T09:19:42.140Z,94.79
2017-10-11T09:20:42.436Z,94.12
2017-10-11T09:21:42.421Z,94.12
2017-10-11T09:22:42.401Z,94.07
2017-10-11T09:23:42.390Z,94.26
2017-10-11T09:24:42.350Z,94.07
2017-10-11T09:25:42.335Z,94.17
2017-10-11T09:26:42.312Z,93.98
2017-10-11T09:27:42.300Z,93.78
2017-10-11T09:28:42.276Z,94.17
2017-10-11T09:29:42.248Z,94.26
2017-10-11T09:30:42.230Z,94.55
2017-10-11T09:31:42.208Z,94.55
2017-10-11T09:32:42.192Z,94.35
2017-10-11T09:33:42.167Z,94.55
2017-10-11T09:34:41.826Z,94.5
2017-10-11T09:35:42.126Z,94.45
2017-10-11T09:36:42.106Z,94.35
2017-10-11T09:37:42.087Z,94.26
2017-10-11T09:38:42.068Z,93.78
2017-10-11T09:39:42.045Z,94.21
2017-10-11T09:40:42.018Z,94.17
2017-10-11T09:41:41.998Z,93.59
2017-10-11T09:42:41.658Z,94.02
2017-10-11T09:43:41.965Z,94.07
2017-10-11T09:44:41.936Z,94.07
2017-10-11T09:45:41.918Z,94.02
2017-10-11T09:46:41.895Z,94.17
2017-10-11T09:47:41.875Z,94.12
2017-10-11T09:48:41.535Z,94.74
2017-10-11T09:49:41.832Z,94.02
2017-10-11T09:50:41.814Z,93.98
2017-10-11T09:51:41.796Z,93.78
2017-10-11T09:52:41.772Z,93.83
2017-10-11T09:53:41.434Z,94.17
2017-10-11T09:54:41.730Z,94.17
2017-10-11T09:55:41.398Z,94.07
2017-10-11T09:56:41.691Z,93.93
2017-10-11T09:57:41.666Z,94.17
2017-10-11T09:58:41.649Z,93.88
2017-10-11T09:59:41.625Z,93.88
2017-10-11T10:00:41.607Z,94.07
2017-10-11T10:01:41.587Z,94.45
2017-10-11T10:02:41.560Z,93.98
2017-10-11T10:03:41.544Z,93.88
2017-10-11T10:04:41.519Z,93.98
2017-10-11T10:05:41.504Z,94.07
2017-10-11T10:06:41.483Z,93.98
2017-10-11T10:07:41.468Z,93.88
2017-10-11T10:08:41.438Z,94.17
2017-10-11T10:09:41.418Z,94.64
2017-10-11T10:10:41.404Z,93.98
2017-10-11T10:11:41.378Z,93.78
2017-10-11T10:12:41.365Z,93.88
2017-10-11T10:13:41.333Z,93.88
2017-10-11T10:14:41.315Z,93.59
2017-10-11T10:15:41.295Z,94.07
2017-10-11T10:16:41.273Z,93.78
2017-10-11T10:17:41.248Z,93.98
2017-10-11T10:18:41.235Z,93.83
2017-10-11T10:19:41.228Z,94.07
2017-10-11T10:20:41.187Z,93.74
2017-10-11T10:21:41.173Z,93.83
2017-10-11T10:22:41.143Z,94.21
2017-10-11T10:23:41.134Z,93.54
2017-10-11T10:24:40.782Z,94.12
2017-10-11T10:25:41.084Z,93.83
2017-10-11T10:26:41.067Z,94.12
2017-10-11T10:27:41.047Z,94.45
2017-10-11T10:28:41.035Z,94.5
2017-10-11T10:29:40.995Z,94.02
2017-10-11T10:30:40.983Z,94.02
2017-10-11T10:31:40.953Z,94.35
2017-10-11T10:32:40.932Z,94.6
2017-10-11T10:33:40.913Z,94.5
2017-10-11T10:34:40.895Z,94.31
2017-10-11T10:35:40.879Z,94.6
2017-10-11T10:36:40.843Z,94.31
2017-10-11T10:37:40.831Z,94.31
2017-10-11T10:38:40.821Z,94.31
2017-10-11T10:39:40.786Z,94.31
2017-10-11T10:40:40.448Z,94.4
2017-10-11T10:41:40.749Z,94.4
2017-10-11T10:42:40.720Z,94.6
2017-10-11T10:43:40.702Z,94.4
2017-10-11T10:44:40.689Z,94.31
2017-10-11T10:45:40.663Z,94.6
2017-10-11T10:46:40.633Z,94.5
2017-10-11T10:47:40.623Z,94.5
2017-10-11T10:48:40.594Z,94.5
2017-10-11T10:49:40.261Z,94.31
2017-10-11T10:50:40.559Z,94.6
2017-10-11T10:51:40.539Z,94.4
2017-10-11T10:52:40.537Z,94.6
2017-10-11T10:53:40.500Z,94.4
2017-10-11T10:54:40.472Z,93.64
2017-10-11T10:55:40.458Z,94.02
2017-10-11T10:56:40.424Z,94.12
2017-10-11T10:57:40.406Z,94.07
2017-10-11T10:58:40.384Z,93.98
2017-10-11T10:59:40.374Z,93.88
2017-10-11T11:00:40.338Z,93.49
2017-10-11T11:01:40.323Z,93.69
2017-10-11T11:02:39.978Z,93.78
2017-10-11T11:03:40.280Z,94.07
2017-10-11T11:04:40.259Z,93.83
2017-10-11T11:05:40.242Z,93.83
2017-10-11T11:06:40.214Z,93.63
2017-10-11T11:07:40.189Z,94.02
2017-10-11T11:08:40.173Z,93.78
2017-10-11T11:09:40.160Z,93.11
2017-10-11T11:10:40.137Z,93.68
2017-10-11T11:11:40.116Z,93.78
2017-10-11T11:12:40.097Z,93.15
2017-10-11T11:13:40.084Z,93.25
2017-10-11T11:14:40.047Z,92.96
2017-10-11T11:15:40.037Z,92.77
2017-10-11T11:16:40.011Z,92.58
2017-10-11T11:17:39.991Z,92.53
2017-10-11T11:18:39.975Z,92.43
2017-10-11T11:19:39.955Z,91.86
2017-10-11T11:20:39.930Z,91.19
2017-10-11T11:21:39.912Z,91.33
2017-10-11T11:22:39.900Z,91.57
2017-10-11T11:23:39.554Z,91.57
2017-10-11T11:24:39.853Z,90.99
2017-10-11T11:25:39.838Z,90.99
2017-10-11T11:26:39.822Z,91.09
2017-10-11T11:27:39.798Z,90.99
2017-10-11T11:28:39.774Z,91.28
2017-10-11T11:29:39.755Z,90.99
2017-10-11T11:30:39.735Z,90.99
2017-10-11T11:31:39.718Z,90.99
2017-10-11T11:32:39.701Z,90.47
2017-10-11T11:33:39.356Z,90.95
2017-10-11T11:34:39.663Z,91.05
2017-10-11T11:35:39.634Z,90.75
2017-10-11T11:36:39.620Z,90.66
2017-10-11T11:37:39.598Z,90.85
2017-10-11T11:38:39.577Z,90.56
2017-10-11T11:39:39.558Z,90.9
2017-10-11T11:40:39.535Z,90.9
2017-10-11T11:41:39.526Z,91.19
2017-10-11T11:42:39.183Z,90.71
2017-10-11T11:44:50.640Z,90.52
2017-10-11T11:45:50.612Z,91.28
2017-10-11T11:46:50.271Z,91.28
2017-10-11T11:47:50.258Z,91.28
2017-10-11T11:48:50.548Z,91.48
2017-10-11T11:49:50.533Z,91.38
2017-10-11T11:50:50.506Z,91.28
2017-10-11T11:51:50.498Z,91.24
2017-10-11T11:52:50.509Z,91.14
2017-10-11T11:53:50.449Z,91.38
2017-10-11T11:54:50.428Z,91.24
2017-10-11T11:55:50.404Z,91.34
2017-10-11T11:56:50.393Z,91.34
2017-10-11T11:57:50.369Z,91.24
2017-10-11T11:58:50.353Z,91.05
2017-10-11T11:59:50.328Z,92.01
2017-10-11T12:03:50.358Z,91.72
2017-10-11T12:04:50.223Z,91.91
2017-10-11T12:05:50.212Z,91.82
2017-10-11T12:06:50.176Z,91.72
2017-10-11T12:07:50.173Z,91.82
2017-10-11T12:08:50.142Z,92.01
2017-10-11T12:09:50.121Z,91.91
2017-10-11T12:10:50.134Z,91.91
2017-10-11T12:11:50.079Z,92.01
2017-10-11T12:12:50.057Z,91.96
2017-10-11T12:13:50.041Z,91.96
2017-10-11T12:14:50.019Z,92.44
2017-10-11T12:15:49.990Z,92.35
2017-10-11T12:16:49.971Z,92.25
2017-10-11T12:17:49.948Z,92.35
2017-10-11T12:18:49.935Z,92.63
2017-10-11T12:19:49.915Z,92.25
2017-10-11T12:20:49.895Z,92.92
2017-10-11T12:21:49.546Z,92.63
2017-10-11T12:22:49.844Z,93.11
2017-10-11T12:23:49.825Z,92.97
2017-10-11T12:24:49.811Z,92.49
2017-10-11T12:25:49.788Z,92.87
2017-10-11T12:26:49.763Z,92.78
2017-10-11T12:27:49.751Z,92.87
2017-10-11T12:28:49.720Z,93.11
2017-10-11T12:29:49.699Z,93.07
2017-10-11T12:30:49.680Z,93.11
2017-10-11T12:31:49.657Z,92.68
2017-10-11T12:32:49.635Z,92.78
2017-10-11T12:33:49.634Z,92.97
2017-10-11T12:34:49.592Z,92.78
2017-10-11T12:35:49.571Z,93.35
2017-10-11T12:36:49.547Z,93.07
2017-10-11T12:37:49.524Z,93.3
2017-10-11T12:38:49.511Z,93.49
2017-10-11T12:39:49.497Z,93.3
2017-10-11T12:40:49.464Z,93.11
2017-10-11T12:41:49.447Z,93.02
2017-10-11T12:42:49.469Z,92.82
2017-10-11T12:43:49.399Z,92.82
2017-10-11T12:44:49.381Z,93.11
2017-10-11T12:45:49.373Z,93.3
2017-10-11T12:46:49.347Z,92.92
2017-10-11T12:47:49.319Z,93.21
2017-10-11T12:48:49.298Z,92.82
2017-10-11T12:49:49.276Z,92.87
2017-10-11T12:50:49.262Z,92.97
2017-10-11T12:51:49.234Z,92.97
2017-10-11T12:52:49.212Z,92.97
2017-10-11T12:53:49.190Z,92.87
2017-10-11T12:54:49.173Z,92.97
2017-10-11T12:55:49.151Z,92.97
2017-10-11T12:56:49.138Z,93.35
2017-10-11T12:57:49.109Z,92.3
2017-10-11T12:58:49.094Z,92.39
2017-10-11T12:59:49.065Z,92.58